Mojave, CA (93501)

5:52 PM PDT on August 29, 2014 (GMT -0700)
Mojave | Change Station
CLOSE
Current Station
Airport
Location: Mojave,
Elevation: 2785 ft
Nearby Weather Stations

Elev 2785 ft 35.06 °N, 118.15 °W | Updated 17 minutes ago

Clear
Clear
93 °F
Feels Like 93 °F
N
21
Wind Variable Wind from WNW

Today
High -- | Low -- °F
--% Chance of Precip.
Yesterday
High -- | Low -- °F
Precip. -- in
6:23 AM 7:23 PM
Waxing Crescent, 17% visible
Pressure 29.88 in
Visibility 10.0 miles
Clouds Clear
Dew Point 39 °F
Humidity 15%
Rainfall 0.00 in
Snow Depth Not available.
UV 2 out of 12
Pollen 9.30 out of 12
Ozone Moderate
Flu Activity Not available.
METAR KMHV 300035Z AUTO 29018KT 10SM CLR 34/04 A2988 RMK AO1

More Conditions Fewer Conditions

Pressure 29.88 in
Visibility 10.0 miles
Clouds Clear
Dew Point 39 °F
Humidity 15%
Rainfall 0.00 in
Snow Depth Not available.
UV 2 out of 12
Pollen 9.30 out of 12
Ozone Moderate
Flu Activity Not available.
METAR KMHV 300035Z AUTO 29018KT 10SM CLR 34/04 A2988 RMK AO1

More Conditions Fewer Conditions

10-Day Weather Forecast

Almanac

Astronomy

Aug. 29, 2014 Rise Set
Actual Time 6:23 AM PDT 7:23 PM PDT
Civil Twilight 5:57 AM PDT 7:49 PM PDT
Nautical Twilight 5:26 AM PDT 8:20 PM PDT
Astronomical Twilight 4:54 AM PDT 8:51 PM PDT
Moon 10:06 AM PDT (8/29) 9:35 PM PDT (8/29)
Length of Visible Light 13h 52m
Length of Day
13h 00m
Tomorrow will be 2m 5s shorter.
Waxing Crescent, 17% of the Moon is Illuminated
Today
Waxing Crescent
Sep 2
First Quarter
Sep 8
Full
Sep 15
Last Quarter
Sep 24
New

Today's Extremes

State Highs State Lows

Community

WunderPhotos

Upload Photos

1,748,390 photos uploaded!

Nearby

Air Quality

  Air Quality AQ Index Pollutant
Yesterday Good
OZONE
Current Moderate
OZONE
Saturday Moderate
OZONE
Saturday Good
PM10
Saturday Good
CO
Saturday Good
NO2

Snow Depth

Station Depth Elevation
Leavitt Meadows 0 in 7200 ft
Summit Meadow 0 in 9122 ft
CSS Lab 1 in 6900 ft
Adin Mountain 0 in 6200 ft

Earthquake Activity

City Distance Mag. Time & Date
Orange Cove, California 125 miles 2.5 7:48 AM PDT
2014-08-29
Minimum magnitude displayed is 2.5.

Coastal Water Temperatures

Place Temperature
No Stations Reporting

Nearby Weather Stations